createdAt,value
2022-12-25T02:16:05.975Z,137.40
2022-12-25T02:18:38.591Z,18.23
2022-12-25T02:21:38.689Z,13.00
2022-12-25T02:24:17.526Z,13.60
2022-12-25T02:26:59.561Z,9.60
2022-12-25T02:29:33.071Z,10.33
2022-12-25T02:32:04.194Z,10.87
2022-12-25T02:34:34.524Z,8.47
2022-12-25T02:37:07.314Z,8.57
2022-12-25T02:39:58.887Z,9.77
2022-12-25T02:42:56.105Z,8.03
2022-12-25T02:45:46.645Z,7.60
2022-12-25T02:48:32.638Z,8.10
2022-12-25T02:51:19.086Z,8.83
2022-12-25T02:54:05.421Z,11.27
2022-12-25T02:56:51.265Z,12.73
2022-12-25T02:59:37.028Z,14.40
2022-12-25T03:02:24.259Z,15.93
2022-12-25T03:05:09.995Z,17.03
2022-12-25T03:07:39.541Z,25.67
2022-12-25T03:10:28.250Z,30.97
2022-12-25T03:13:00.490Z,33.70
2022-12-25T03:15:45.587Z,27.07
2022-12-25T03:18:16.419Z,27.00
2022-12-25T03:21:16.538Z,35.17
2022-12-25T03:24:06.223Z,27.80
2022-12-25T03:26:51.840Z,27.33
2022-12-25T03:29:33.469Z,31.50
2022-12-25T03:32:06.287Z,31.57
2022-12-25T03:34:58.785Z,32.97
2022-12-25T03:37:49.920Z,29.37
2022-12-25T03:40:42.890Z,30.67
2022-12-25T03:43:38.512Z,33.03
2022-12-25T03:46:28.332Z,36.27
2022-12-25T03:49:19.553Z,40.20
2022-12-25T03:52:07.792Z,43.30
2022-12-25T03:54:55.820Z,28.10
2022-12-25T03:57:41.115Z,30.37
2022-12-25T04:00:27.574Z,46.90
2022-12-25T04:03:12.824Z,29.53
2022-12-25T04:05:58.244Z,31.53
2022-12-25T04:08:49.942Z,31.93
2022-12-25T04:11:35.462Z,30.03
2022-12-25T04:14:20.772Z,36.13
2022-12-25T04:17:06.135Z,34.20
2022-12-25T04:19:51.554Z,37.27
2022-12-25T04:22:36.941Z,39.80
2022-12-25T04:25:24.529Z,39.50
2022-12-25T04:28:09.941Z,43.07
2022-12-25T04:30:55.211Z,38.90
2022-12-25T04:33:51.962Z,39.00
2022-12-25T04:36:19.936Z,38.57
2022-12-25T04:38:47.628Z,42.63
2022-12-25T04:41:16.747Z,56.37
2022-12-25T04:43:44.476Z,54.37
2022-12-25T04:46:12.269Z,52.70
2022-12-25T04:48:39.998Z,41.90
2022-12-25T04:51:12.717Z,51.80
2022-12-25T04:53:40.378Z,43.07
2022-12-25T04:56:08.135Z,49.63
2022-12-25T04:58:37.239Z,37.00
2022-12-25T05:01:05.541Z,43.20
2022-12-25T05:03:33.957Z,43.90
2022-12-25T05:06:02.035Z,36.47
2022-12-25T05:08:30.316Z,46.53
2022-12-25T05:10:58.239Z,40.20
2022-12-25T05:13:26.313Z,43.73
2022-12-25T05:15:55.393Z,44.87
2022-12-25T05:18:23.193Z,47.07
2022-12-25T05:20:54.491Z,46.50
2022-12-25T05:23:22.968Z,40.57
2022-12-25T05:25:50.683Z,46.90
2022-12-25T05:28:18.323Z,44.47
2022-12-25T05:30:46.053Z,47.03
2022-12-25T05:33:16.498Z,37.53
2022-12-25T05:35:44.220Z,36.80
2022-12-25T05:38:11.924Z,47.20
2022-12-25T05:40:40.770Z,49.23
2022-12-25T05:43:09.209Z,47.80
2022-12-25T05:45:37.249Z,47.77
2022-12-25T05:48:05.114Z,47.83
2022-12-25T05:50:34.153Z,35.67
2022-12-25T05:53:07.847Z,49.67
2022-12-25T05:55:36.304Z,49.93
2022-12-25T05:58:04.592Z,54.23
2022-12-25T06:00:32.612Z,50.10
2022-12-25T06:03:00.420Z,60.77
2022-12-25T06:05:28.337Z,64.00
2022-12-25T06:07:57.495Z,37.80
2022-12-25T06:10:25.410Z,51.57
2022-12-25T06:12:53.062Z,51.13
2022-12-25T06:15:20.773Z,53.00
2022-12-25T06:17:48.489Z,51.90
2022-12-25T06:20:16.163Z,54.80
2022-12-25T06:22:43.890Z,53.23
2022-12-25T06:25:13.236Z,51.63
2022-12-25T06:27:40.953Z,53.40
2022-12-25T06:30:09.992Z,55.70
2022-12-25T06:32:37.962Z,35.13
2022-12-25T06:35:06.385Z,48.77
2022-12-25T06:37:34.104Z,46.77
2022-12-25T06:40:01.814Z,60.23
2022-12-25T06:42:30.839Z,37.07
2022-12-25T06:44:58.492Z,52.83
2022-12-25T06:47:26.216Z,53.17
2022-12-25T06:49:53.940Z,54.03
2022-12-25T06:52:21.655Z,51.87
2022-12-25T06:54:49.388Z,50.60
2022-12-25T06:57:17.161Z,54.20
2022-12-25T06:59:51.280Z,53.80
2022-12-25T07:02:24.050Z,53.43
2022-12-25T07:04:52.376Z,53.83
2022-12-25T07:07:20.789Z,54.60
2022-12-25T07:09:48.526Z,53.10
2022-12-25T07:12:18.202Z,58.93
2022-12-25T07:14:49.007Z,57.80
2022-12-25T07:17:16.929Z,55.77
2022-12-25T07:19:45.295Z,47.90
2022-12-25T07:22:13.188Z,53.03
2022-12-25T07:24:40.905Z,59.57
2022-12-25T07:27:09.295Z,38.23
2022-12-25T07:29:36.969Z,71.00
2022-12-25T07:32:06.882Z,56.30
2022-12-25T07:34:34.613Z,52.60
2022-12-25T07:37:02.320Z,54.40
2022-12-25T07:39:30.353Z,54.33
2022-12-25T07:41:58.027Z,56.97
2022-12-25T07:44:25.766Z,55.97
2022-12-25T07:46:53.454Z,55.63
2022-12-25T07:49:22.706Z,30.60
2022-12-25T07:51:50.369Z,29.67
2022-12-25T07:54:18.144Z,27.90
2022-12-25T07:56:45.876Z,31.20
2022-12-25T07:59:13.622Z,33.13
2022-12-25T08:01:41.426Z,34.90
2022-12-25T08:04:11.580Z,40.77
2022-12-25T08:06:40.727Z,36.57
2022-12-25T08:09:10.224Z,37.77
2022-12-25T08:11:38.609Z,38.83
2022-12-25T08:14:06.954Z,42.20
2022-12-25T08:16:35.234Z,41.23
2022-12-25T08:19:03.015Z,43.70
2022-12-25T08:21:30.658Z,38.67
2022-12-25T08:23:59.698Z,41.77
2022-12-25T08:26:27.364Z,38.37
2022-12-25T08:28:55.047Z,48.27
2022-12-25T08:31:25.160Z,46.10
2022-12-25T08:33:56.002Z,42.00
2022-12-25T08:36:24.615Z,43.70
2022-12-25T08:38:55.659Z,47.57
2022-12-25T08:41:27.989Z,45.07
2022-12-25T08:43:55.836Z,45.37
2022-12-25T08:46:23.527Z,45.87
2022-12-25T08:48:51.407Z,41.57
2022-12-25T08:51:20.932Z,50.17
2022-12-25T08:53:50.196Z,50.10
2022-12-25T08:56:19.135Z,50.50
2022-12-25T08:58:48.406Z,50.50
2022-12-25T09:01:16.369Z,52.63
2022-12-25T09:03:44.235Z,49.73
2022-12-25T09:06:14.693Z,52.30
2022-12-25T09:08:48.626Z,49.90
2022-12-25T09:11:18.641Z,48.30
2022-12-25T09:13:46.301Z,52.63
2022-12-25T09:16:17.368Z,54.13
2022-12-25T09:18:45.112Z,54.00
2022-12-25T09:21:15.089Z,50.57
2022-12-25T09:23:43.299Z,48.13
2022-12-25T09:26:12.807Z,50.50
2022-12-25T09:28:45.161Z,49.40
2022-12-25T09:31:17.809Z,54.33
2022-12-25T09:33:45.549Z,39.60
2022-12-25T09:36:13.318Z,51.93
2022-12-25T09:38:41.041Z,52.50
2022-12-25T09:41:14.949Z,55.10
2022-12-25T09:43:45.562Z,51.60
2022-12-25T09:46:18.735Z,55.63
2022-12-25T09:48:49.541Z,53.30
2022-12-25T11:13:56.295Z,150.70
2022-12-25T11:16:29.876Z,50.40
2022-12-25T11:18:58.844Z,39.90
2022-12-25T11:21:28.909Z,36.17
2022-12-25T11:23:58.846Z,39.23
2022-12-25T11:26:29.275Z,39.40
2022-12-25T11:28:57.563Z,40.57
2022-12-25T11:31:31.226Z,41.40
2022-12-25T11:34:03.089Z,44.67
2022-12-25T11:36:33.236Z,48.80
2022-12-25T11:39:02.916Z,49.73
2022-12-25T11:41:33.804Z,49.77
2022-12-25T11:44:05.128Z,49.40
2022-12-25T11:46:40.227Z,47.87
2022-12-25T11:49:09.101Z,49.97
2022-12-25T11:51:39.462Z,85.70
2022-12-25T11:54:15.685Z,58.33
2022-12-25T11:56:44.841Z,51.03
2022-12-25T11:59:18.497Z,49.47
2022-12-25T12:01:48.421Z,50.50
2022-12-25T12:04:24.314Z,59.50
2022-12-25T12:06:57.625Z,55.60
2022-12-25T12:09:35.774Z,49.40
2022-12-25T12:12:08.974Z,59.23
2022-12-25T12:14:45.082Z,54.00
2022-12-25T12:17:13.243Z,56.17
2022-12-25T12:19:40.946Z,52.90
2022-12-25T12:22:15.845Z,58.70
2022-12-25T12:24:44.584Z,46.90
2022-12-25T12:27:22.954Z,51.03
2022-12-25T12:29:52.071Z,45.23
2022-12-25T12:32:28.952Z,52.87
2022-12-25T12:34:57.916Z,50.60
2022-12-25T12:37:29.305Z,51.97
2022-12-25T12:39:57.569Z,48.97
2022-12-25T12:42:27.789Z,53.47
2022-12-25T12:44:56.619Z,50.93
2022-12-25T12:47:34.105Z,54.33
2022-12-25T12:50:02.545Z,53.07
2022-12-25T12:52:33.803Z,54.80
2022-12-25T12:55:04.917Z,39.87
2022-12-25T12:57:39.959Z,58.37
2022-12-25T13:00:11.128Z,62.23
2022-12-25T13:03:05.908Z,57.43
2022-12-25T13:05:38.664Z,54.03
2022-12-25T13:08:17.552Z,66.50
2022-12-25T13:10:47.824Z,49.30
2022-12-25T13:13:19.870Z,57.00
2022-12-25T13:15:49.029Z,53.97
2022-12-25T13:18:17.074Z,57.33
2022-12-25T13:20:49.457Z,54.87
2022-12-25T13:23:26.087Z,54.97
2022-12-25T13:25:55.393Z,51.13
2022-12-25T13:28:31.961Z,50.67
2022-12-25T13:31:04.135Z,58.10
2022-12-25T13:33:32.077Z,58.70
2022-12-25T13:35:59.843Z,52.20
2022-12-25T13:38:28.608Z,58.80
2022-12-25T13:41:15.783Z,57.97
2022-12-25T13:43:45.569Z,43.47
2022-12-25T13:46:14.454Z,62.27
2022-12-25T13:48:42.611Z,62.90
2022-12-25T13:51:15.825Z,62.73
2022-12-25T13:53:43.763Z,57.60
2022-12-25T13:56:14.848Z,63.60
2022-12-25T13:58:44.433Z,60.97
2022-12-25T14:01:16.875Z,44.30
2022-12-25T14:03:46.998Z,63.20
2022-12-25T14:06:20.220Z,62.93
2022-12-25T14:08:48.662Z,60.53
2022-12-25T14:11:17.648Z,65.17
2022-12-25T14:13:48.304Z,48.13
2022-12-25T14:16:17.595Z,67.73
2022-12-25T14:18:52.169Z,67.43
2022-12-25T14:21:29.837Z,64.33
2022-12-25T14:23:57.694Z,62.33
2022-12-25T14:26:27.190Z,66.43
2022-12-25T14:29:00.218Z,65.53
2022-12-25T14:31:29.846Z,62.30
2022-12-25T14:33:59.222Z,67.30
2022-12-25T14:36:27.450Z,67.57
2022-12-25T14:38:59.778Z,68.13
2022-12-25T14:41:37.874Z,67.00
2022-12-25T14:44:25.315Z,61.50
2022-12-25T14:47:04.399Z,60.70
2022-12-25T14:49:33.111Z,48.07
2022-12-25T14:52:00.812Z,69.37
2022-12-25T14:54:28.755Z,69.13
2022-12-25T14:56:57.094Z,46.40
2022-12-25T14:59:27.323Z,69.53
2022-12-25T15:01:57.480Z,68.50
2022-12-25T15:04:26.121Z,63.70
2022-12-25T15:06:55.338Z,61.93
2022-12-25T15:09:23.653Z,56.03
2022-12-25T15:11:52.213Z,68.77
2022-12-25T15:14:20.122Z,70.80
2022-12-25T15:16:51.345Z,57.53
2022-12-25T15:19:25.796Z,70.77
2022-12-25T15:21:54.969Z,67.60
2022-12-25T15:24:22.632Z,69.90
2022-12-25T15:26:53.181Z,73.73
2022-12-25T15:29:44.544Z,71.37
2022-12-25T15:32:15.507Z,69.07
2022-12-25T15:34:46.162Z,63.47
2022-12-25T15:37:14.732Z,73.03
2022-12-25T15:39:42.523Z,74.47
2022-12-25T15:42:14.622Z,72.93
2022-12-25T15:44:43.722Z,72.50
2022-12-25T15:47:13.848Z,62.20
2022-12-25T15:49:42.034Z,74.40
2022-12-25T15:52:12.631Z,68.13
2022-12-25T15:54:40.273Z,72.53
2022-12-25T15:57:16.378Z,64.93
2022-12-25T15:59:44.077Z,70.90
2022-12-25T16:02:17.401Z,57.47
2022-12-25T16:04:45.289Z,66.10
2022-12-25T16:07:15.743Z,74.10
2022-12-25T16:09:43.588Z,71.90
2022-12-25T16:12:11.353Z,70.20
2022-12-25T16:14:39.346Z,60.90
2022-12-25T16:17:07.169Z,83.27
2022-12-25T16:19:36.247Z,74.23
2022-12-25T16:22:12.130Z,79.60
2022-12-25T16:24:39.893Z,74.43
2022-12-25T16:27:07.548Z,81.17
2022-12-25T16:29:35.459Z,69.43
2022-12-25T16:32:03.180Z,69.43
2022-12-25T16:34:30.824Z,72.40
2022-12-25T16:36:59.827Z,60.97
2022-12-25T16:39:27.499Z,57.33
2022-12-25T16:41:55.198Z,57.67
2022-12-25T16:44:22.876Z,63.73
2022-12-25T16:46:50.681Z,74.63
2022-12-25T16:49:18.490Z,76.53
2022-12-25T16:51:46.217Z,72.30
2022-12-25T16:54:15.306Z,61.57
2022-12-25T16:56:42.961Z,73.57
2022-12-25T16:59:10.624Z,77.03
2022-12-25T17:01:43.166Z,72.50
2022-12-25T17:04:11.143Z,76.47
2022-12-25T17:06:38.827Z,60.23
2022-12-25T17:09:07.566Z,89.00
2022-12-25T17:11:36.663Z,77.63
2022-12-25T17:14:06.242Z,77.57
2022-12-25T17:16:35.396Z,65.53
2022-12-25T17:19:05.221Z,81.10
2022-12-25T17:21:34.307Z,81.20
2022-12-25T17:24:03.982Z,80.03
2022-12-25T17:26:32.497Z,71.73
2022-12-25T17:29:01.592Z,81.60
2022-12-25T17:31:29.453Z,86.40
2022-12-25T17:33:57.615Z,83.57
2022-12-25T17:36:25.375Z,81.70
